createdAt,value
2019-05-21T00:00:10.874Z,55.93
2019-05-21T00:02:39.444Z,46.27
2019-05-21T00:05:08.426Z,64.27
2019-05-21T00:07:36.996Z,56.93
2019-05-21T00:10:05.685Z,62.00
2019-05-21T00:12:34.553Z,67.73
2019-05-21T00:15:03.145Z,67.83
2019-05-21T00:17:31.732Z,61.90
2019-05-21T00:20:00.377Z,52.20
2019-05-21T00:22:28.963Z,78.10
2019-05-21T00:24:57.640Z,69.43
2019-05-21T00:27:26.355Z,57.97
2019-05-21T00:30:31.077Z,116.53
2019-05-21T00:33:36.134Z,90.40
2019-05-21T00:36:43.463Z,84.13
2019-05-21T00:39:48.718Z,97.70
2019-05-21T00:42:26.633Z,95.80
2019-05-21T00:44:55.321Z,148.03
2019-05-21T00:47:23.900Z,89.00
2019-05-21T00:49:52.503Z,108.80
2019-05-21T00:52:22.902Z,118.90
2019-05-21T00:55:10.791Z,104.97
2019-05-21T00:57:39.381Z,99.53
2019-05-21T01:00:08.188Z,69.20
2019-05-21T01:02:36.969Z,82.67
2019-05-21T01:05:05.576Z,107.63
2019-05-21T01:07:34.177Z,98.13
2019-05-21T01:10:02.782Z,102.77
2019-05-21T01:12:31.454Z,87.47
2019-05-21T01:15:00.032Z,76.90
2019-05-21T01:17:28.596Z,73.53
2019-05-21T01:20:16.501Z,75.00
2019-05-21T01:22:45.101Z,61.23
2019-05-21T01:25:13.644Z,59.47
2019-05-21T01:27:42.214Z,66.47
2019-05-21T01:30:10.839Z,51.77
2019-05-21T01:32:39.423Z,62.57
2019-05-21T01:35:16.735Z,68.93
2019-05-21T01:37:38.624Z,52.73
2019-05-21T01:40:07.229Z,56.10
2019-05-21T01:42:36.108Z,66.80
2019-05-21T01:45:05.158Z,84.33
2019-05-21T01:47:33.753Z,74.27
2019-05-21T01:50:02.320Z,53.07
2019-05-21T01:52:30.888Z,59.70
2019-05-21T01:54:59.470Z,49.57
2019-05-21T01:57:28.032Z,60.33
2019-05-21T01:59:56.628Z,47.47
2019-05-21T02:02:25.201Z,42.77
2019-05-21T02:04:53.789Z,54.43
2019-05-21T02:07:22.437Z,49.77
2019-05-21T02:09:59.861Z,52.70
2019-05-21T02:12:28.432Z,71.33
2019-05-21T02:14:57.000Z,61.70
2019-05-21T02:17:25.579Z,66.73
2019-05-21T02:19:54.155Z,59.90
2019-05-21T02:22:22.759Z,45.53
2019-05-21T02:24:51.335Z,50.93
2019-05-21T02:27:19.940Z,55.67
2019-05-21T02:29:48.506Z,43.30
2019-05-21T02:32:17.105Z,44.70
2019-05-21T02:34:45.733Z,46.57
2019-05-21T02:37:14.308Z,39.87
2019-05-21T02:39:42.890Z,47.37
2019-05-21T02:42:11.457Z,44.73
2019-05-21T02:44:40.042Z,61.40
2019-05-21T02:47:08.612Z,46.10
2019-05-21T02:49:37.187Z,43.70
2019-05-21T02:52:05.751Z,42.47
2019-05-21T02:54:40.743Z,40.90
2019-05-21T02:57:04.656Z,51.60
2019-05-21T02:59:33.227Z,48.30
2019-05-21T03:02:14.275Z,51.60
2019-05-21T03:04:42.851Z,42.33
2019-05-21T03:07:17.514Z,41.93
2019-05-21T03:09:47.185Z,52.97
2019-05-21T03:12:15.984Z,47.60
2019-05-21T03:14:44.552Z,42.13
2019-05-21T03:17:13.378Z,39.00
2019-05-21T03:19:41.998Z,57.20
2019-05-21T03:22:10.606Z,43.30
2019-05-21T03:24:39.189Z,42.73
2019-05-21T03:27:27.110Z,59.77
2019-05-21T03:29:55.697Z,52.87
2019-05-21T03:32:24.271Z,61.60
2019-05-21T03:34:52.850Z,86.30
2019-05-21T03:37:21.427Z,80.43
2019-05-21T03:39:50.082Z,72.47
2019-05-21T03:42:18.704Z,78.07
2019-05-21T03:44:59.182Z,68.10
2019-05-21T03:47:17.692Z,113.43
2019-05-21T03:49:46.332Z,87.53
2019-05-21T03:52:14.936Z,94.93
2019-05-21T03:54:43.520Z,74.40
2019-05-21T03:57:12.136Z,108.17
2019-05-21T03:59:40.785Z,110.87
2019-05-21T04:02:28.673Z,95.97
2019-05-21T04:04:57.424Z,93.30
2019-05-21T04:07:25.998Z,102.17
2019-05-21T04:09:54.720Z,77.73
2019-05-21T04:12:23.334Z,84.83
2019-05-21T04:14:56.184Z,69.90
2019-05-21T04:17:34.856Z,81.90
2019-05-21T04:20:22.146Z,90.30
2019-05-21T04:22:53.831Z,76.10
2019-05-21T04:25:23.527Z,103.07
2019-05-21T04:27:52.115Z,87.70
2019-05-21T04:30:20.694Z,86.53
2019-05-21T04:32:49.283Z,97.53
2019-05-21T04:35:17.878Z,80.43
2019-05-21T04:37:46.450Z,80.33
2019-05-21T04:40:15.064Z,74.47
2019-05-21T04:42:43.636Z,88.50
2019-05-21T04:45:12.225Z,89.73
2019-05-21T04:47:40.796Z,80.17
2019-05-21T04:50:09.364Z,92.00
2019-05-21T04:52:37.936Z,90.27
2019-05-21T04:55:25.837Z,79.40
2019-05-21T04:57:54.497Z,91.10
2019-05-21T05:00:23.073Z,87.80
2019-05-21T05:02:51.645Z,74.57
2019-05-21T05:05:20.204Z,79.13
2019-05-21T05:07:48.797Z,73.83
2019-05-21T05:10:17.381Z,87.20
2019-05-21T05:12:45.953Z,89.87
2019-05-21T05:15:14.541Z,75.20
2019-05-21T05:17:43.134Z,80.23
2019-05-21T05:20:11.803Z,77.80
2019-05-21T05:22:40.721Z,70.20
2019-05-21T05:25:09.332Z,73.47
2019-05-21T05:27:37.903Z,59.60
2019-05-21T05:30:06.927Z,57.57
2019-05-21T05:32:35.506Z,68.03
2019-05-21T05:35:04.978Z,60.67
2019-05-21T05:37:43.149Z,53.47
2019-05-21T05:40:04.260Z,65.17
2019-05-21T05:42:32.908Z,67.60
2019-05-21T05:45:01.492Z,72.10
2019-05-21T05:47:30.085Z,66.20
2019-05-21T05:50:00.348Z,67.60
2019-05-21T05:52:29.189Z,66.97
2019-05-21T05:54:57.780Z,65.73
2019-05-21T05:57:26.378Z,60.30
2019-05-21T05:59:54.962Z,54.60
2019-05-21T06:02:23.540Z,52.90
2019-05-21T06:04:52.126Z,56.60
2019-05-21T06:07:20.727Z,47.00
2019-05-21T06:09:49.463Z,49.83
2019-05-21T06:12:18.468Z,47.17
2019-05-21T06:14:47.063Z,45.50
2019-05-21T06:17:15.629Z,40.73
2019-05-21T06:19:44.213Z,51.13
2019-05-21T06:22:12.802Z,48.80
2019-05-21T06:24:41.377Z,55.13
2019-05-21T06:27:09.971Z,44.43
2019-05-21T06:29:39.690Z,50.77
2019-05-21T06:32:08.767Z,52.37
2019-05-21T06:34:37.360Z,53.30
2019-05-21T06:37:06.040Z,58.00
2019-05-21T06:39:34.713Z,48.80
2019-05-21T06:42:03.360Z,55.43
2019-05-21T06:44:31.944Z,57.37
2019-05-21T06:47:00.516Z,45.73
2019-05-21T06:49:29.110Z,43.07
2019-05-21T06:51:57.705Z,48.97
2019-05-21T06:54:26.303Z,50.13
2019-05-21T06:56:54.919Z,49.63
2019-05-21T06:59:23.614Z,47.23
2019-05-21T07:01:52.351Z,50.13
2019-05-21T07:04:22.064Z,40.73
2019-05-21T07:06:50.629Z,37.27
2019-05-21T07:09:19.254Z,31.53
2019-05-21T07:11:47.955Z,33.17
2019-05-21T07:14:16.585Z,30.50
2019-05-21T07:17:04.574Z,28.77
2019-05-21T07:19:33.162Z,31.80
2019-05-21T07:22:12.228Z,31.73
2019-05-21T07:24:32.041Z,29.33
2019-05-21T07:27:00.622Z,27.83
2019-05-21T07:29:29.180Z,25.17
2019-05-21T07:31:57.837Z,27.63
2019-05-21T07:34:26.418Z,26.57
2019-05-21T07:36:55.008Z,26.70
2019-05-21T07:39:23.621Z,24.47
2019-05-21T07:41:52.221Z,26.80
2019-05-21T07:44:20.837Z,25.90
2019-05-21T07:46:49.502Z,22.10
2019-05-21T07:49:18.155Z,25.10
2019-05-21T07:51:46.747Z,25.67
2019-05-21T07:54:15.350Z,20.00
2019-05-21T07:56:43.938Z,27.13
2019-05-21T07:59:12.529Z,22.60
2019-05-21T08:01:41.102Z,28.57
2019-05-21T08:04:09.701Z,27.83
2019-05-21T08:06:38.293Z,27.40
2019-05-21T08:09:13.245Z,24.70
2019-05-21T08:11:37.189Z,21.30
2019-05-21T08:14:05.760Z,23.80
2019-05-21T08:16:34.326Z,23.13
2019-05-21T08:19:02.902Z,24.40
2019-05-21T08:21:31.470Z,22.40
2019-05-21T08:24:00.104Z,21.60
2019-05-21T08:26:28.692Z,20.77
2019-05-21T08:28:57.262Z,17.67
2019-05-21T08:31:25.816Z,18.90
2019-05-21T08:33:54.397Z,19.60
2019-05-21T08:36:22.964Z,22.10
2019-05-21T08:38:51.546Z,22.87
2019-05-21T08:41:22.484Z,24.27
2019-05-21T08:43:51.057Z,16.53
2019-05-21T08:46:19.632Z,16.17
2019-05-21T08:48:48.196Z,13.10
2019-05-21T08:51:16.778Z,22.27
2019-05-21T08:53:45.374Z,12.83
2019-05-21T08:56:13.984Z,16.90
2019-05-21T08:58:42.555Z,12.53
2019-05-21T09:01:11.128Z,16.50
2019-05-21T09:03:39.729Z,26.00
2019-05-21T09:06:08.379Z,20.20
2019-05-21T09:08:36.955Z,17.13
2019-05-21T09:11:05.580Z,15.77
2019-05-21T09:13:34.148Z,20.27
2019-05-21T09:16:02.708Z,15.23
2019-05-21T09:18:31.291Z,12.53
2019-05-21T09:20:59.873Z,22.23
2019-05-21T09:23:28.516Z,14.33
2019-05-21T09:25:57.095Z,16.00
2019-05-21T09:28:25.665Z,13.50
2019-05-21T09:30:54.309Z,17.53
2019-05-21T09:33:22.864Z,17.20
2019-05-21T09:35:51.433Z,12.27
2019-05-21T09:38:20.105Z,18.40
2019-05-21T09:40:48.668Z,16.50
2019-05-21T09:43:17.239Z,10.67
2019-05-21T09:45:45.821Z,12.97
2019-05-21T09:48:14.394Z,12.63
2019-05-21T09:50:42.978Z,14.50
2019-05-21T09:53:11.568Z,16.57
2019-05-21T09:55:40.154Z,12.63
2019-05-21T09:58:33.808Z,15.90
2019-05-21T10:01:21.458Z,13.03
2019-05-21T10:03:57.783Z,10.77
2019-05-21T10:06:26.452Z,11.00
2019-05-21T10:08:55.057Z,16.70
2019-05-21T10:11:23.922Z,14.33
2019-05-21T10:13:52.536Z,15.73
2019-05-21T10:16:21.272Z,18.23
2019-05-21T10:18:49.836Z,14.73
2019-05-21T10:21:18.526Z,14.63
2019-05-21T10:23:47.173Z,12.90
2019-05-21T10:26:16.278Z,16.20
2019-05-21T10:28:44.853Z,11.50
2019-05-21T10:31:13.428Z,14.50
2019-05-21T10:33:41.996Z,11.53
2019-05-21T10:36:10.591Z,14.83
2019-05-21T10:38:39.180Z,16.20
2019-05-21T10:41:07.762Z,17.73
2019-05-21T10:43:36.321Z,10.97
2019-05-21T10:46:05.010Z,14.73
2019-05-21T10:48:33.621Z,14.37
2019-05-21T10:51:02.194Z,16.73
2019-05-21T10:53:30.774Z,16.70
2019-05-21T10:55:59.412Z,16.00
2019-05-21T10:58:28.004Z,11.77
2019-05-21T11:01:02.035Z,14.73
2019-05-21T11:04:08.135Z,20.57
2019-05-21T11:06:56.101Z,12.47
2019-05-21T11:09:25.107Z,22.10
2019-05-21T11:11:53.764Z,13.60
2019-05-21T11:14:22.358Z,12.57
2019-05-21T11:16:50.929Z,15.80
2019-05-21T11:19:19.509Z,11.83
2019-05-21T11:21:48.149Z,15.90
2019-05-21T11:24:16.824Z,14.30
2019-05-21T11:26:45.529Z,24.17
2019-05-21T11:29:14.157Z,23.53
2019-05-21T11:31:55.886Z,14.27
2019-05-21T11:34:13.089Z,18.87
2019-05-21T11:36:41.681Z,10.50
2019-05-21T11:39:10.357Z,11.50
2019-05-21T11:41:38.943Z,9.87
2019-05-21T11:44:07.523Z,13.70
2019-05-21T11:46:36.107Z,10.47
2019-05-21T11:49:04.712Z,15.83
2019-05-21T11:51:33.592Z,13.53
2019-05-21T11:54:02.215Z,9.33
2019-05-21T11:56:30.782Z,14.97
2019-05-21T11:58:59.381Z,15.87
2019-05-21T12:01:28.029Z,15.70
2019-05-21T12:03:56.637Z,15.47
2019-05-21T12:06:25.227Z,17.37
2019-05-21T12:09:13.380Z,22.03
2019-05-21T12:11:42.262Z,15.43
2019-05-21T12:14:10.856Z,18.40
2019-05-21T12:16:39.453Z,14.23
2019-05-21T12:19:08.695Z,17.53
2019-05-21T12:21:37.440Z,14.70
2019-05-21T12:24:06.093Z,15.03
2019-05-21T12:26:53.989Z,15.23
2019-05-21T12:29:22.577Z,21.23
2019-05-21T12:31:51.143Z,14.20
2019-05-21T12:34:19.772Z,21.00
2019-05-21T12:36:48.422Z,14.83
2019-05-21T12:39:17.066Z,14.87
2019-05-21T12:41:45.748Z,13.90
2019-05-21T12:44:14.317Z,16.60
2019-05-21T12:46:42.905Z,14.30
2019-05-21T12:49:11.537Z,18.47
2019-05-21T12:51:40.481Z,13.93
2019-05-21T12:54:09.069Z,24.23
2019-05-21T12:56:40.811Z,20.87
2019-05-21T12:59:08.501Z,17.80
2019-05-21T13:01:37.121Z,16.40
2019-05-21T13:04:05.713Z,21.43
2019-05-21T13:06:34.295Z,18.40
2019-05-21T13:09:07.062Z,18.57
2019-05-21T13:11:33.493Z,20.10
2019-05-21T13:14:02.082Z,22.10
2019-05-21T13:16:30.702Z,16.03
2019-05-21T13:18:59.331Z,18.50
2019-05-21T13:21:27.909Z,17.47
2019-05-21T13:23:57.265Z,16.57
2019-05-21T13:26:26.342Z,24.13
2019-05-21T13:28:54.948Z,16.97
2019-05-21T13:31:23.527Z,12.33
2019-05-21T13:33:52.128Z,19.03
2019-05-21T13:36:20.696Z,16.90
2019-05-21T13:38:49.284Z,18.90
2019-05-21T13:41:18.044Z,14.60
2019-05-21T13:43:46.715Z,20.00
2019-05-21T13:46:15.386Z,23.70
2019-05-21T13:48:46.907Z,17.33
2019-05-21T13:51:14.279Z,20.17
2019-05-21T13:53:42.872Z,24.13
2019-05-21T13:56:11.483Z,21.93
2019-05-21T13:58:40.049Z,27.70
2019-05-21T14:01:09.182Z,20.30
2019-05-21T14:03:37.765Z,22.83
2019-05-21T14:06:06.369Z,16.43
2019-05-21T14:08:35.070Z,18.00
2019-05-21T14:11:03.657Z,19.03
2019-05-21T14:13:32.494Z,19.53
2019-05-21T14:16:01.114Z,19.63
2019-05-21T14:18:29.700Z,18.13
2019-05-21T14:20:58.284Z,21.70
2019-05-21T14:23:26.886Z,20.20
2019-05-21T14:25:55.467Z,20.23
2019-05-21T14:28:24.052Z,19.87
2019-05-21T14:30:52.667Z,17.43
2019-05-21T14:33:23.405Z,18.93
2019-05-21T14:35:52.009Z,19.27
2019-05-21T14:38:23.480Z,17.63
2019-05-21T14:40:52.251Z,18.10
2019-05-21T14:43:24.080Z,18.07
2019-05-21T14:45:53.014Z,17.87
2019-05-21T14:48:21.643Z,22.23
2019-05-21T14:50:50.250Z,21.20
2019-05-21T14:53:18.881Z,20.33
2019-05-21T14:55:47.465Z,17.93
2019-05-21T14:58:35.428Z,24.47
2019-05-21T15:01:04.525Z,18.67
2019-05-21T15:03:33.096Z,22.63
2019-05-21T15:06:01.663Z,19.83
2019-05-21T15:08:30.244Z,18.70
2019-05-21T15:10:58.832Z,17.20
2019-05-21T15:13:27.407Z,23.27
2019-05-21T15:15:55.985Z,17.77
2019-05-21T15:18:24.642Z,22.67
2019-05-21T15:21:18.471Z,23.20
2019-05-21T15:23:48.326Z,20.30
2019-05-21T15:26:17.356Z,27.93
2019-05-21T15:28:46.270Z,22.13
2019-05-21T15:31:14.858Z,18.30
2019-05-21T15:33:43.437Z,20.03
2019-05-21T15:36:12.021Z,23.40
2019-05-21T15:38:50.157Z,21.10
2019-05-21T15:41:12.602Z,27.90
2019-05-21T15:43:41.200Z,25.40
2019-05-21T15:46:09.786Z,24.17
2019-05-21T15:48:38.359Z,20.50
2019-05-21T15:51:06.954Z,21.97
2019-05-21T15:53:35.524Z,20.60
2019-05-21T15:56:04.119Z,19.03
2019-05-21T15:58:32.703Z,25.87
2019-05-21T16:01:01.325Z,27.77
2019-05-21T16:03:29.984Z,21.63
2019-05-21T16:05:58.554Z,17.97
2019-05-21T16:08:27.173Z,17.73
2019-05-21T16:10:55.848Z,22.43
2019-05-21T16:13:24.449Z,20.67
2019-05-21T16:15:53.011Z,23.40
2019-05-21T16:18:21.596Z,18.37
2019-05-21T16:20:50.241Z,23.37
2019-05-21T16:23:18.834Z,20.47
2019-05-21T16:25:47.693Z,22.97
2019-05-21T16:28:16.514Z,20.93
2019-05-21T16:30:45.401Z,17.93
2019-05-21T16:33:14.274Z,26.90
2019-05-21T16:35:42.853Z,24.13
2019-05-21T16:38:11.432Z,22.50
2019-05-21T16:40:40.024Z,22.33
2019-05-21T16:43:08.602Z,25.87
2019-05-21T16:45:37.457Z,16.67
2019-05-21T16:48:06.036Z,20.63
2019-05-21T16:50:34.624Z,17.37
2019-05-21T16:53:03.510Z,17.40
2019-05-21T16:55:32.192Z,15.63
2019-05-21T16:58:01.099Z,19.23
2019-05-21T17:00:29.695Z,18.80
2019-05-21T17:02:58.367Z,20.30
2019-05-21T17:05:26.941Z,15.70
2019-05-21T17:07:55.557Z,20.07
2019-05-21T17:10:24.830Z,18.10
2019-05-21T17:12:53.413Z,13.07
2019-05-21T17:15:22.084Z,14.83
2019-05-21T17:17:50.694Z,18.07
2019-05-21T17:20:19.318Z,16.10
2019-05-21T17:22:48.045Z,16.53
2019-05-21T17:25:16.628Z,18.20
2019-05-21T17:27:45.214Z,18.13
2019-05-21T17:30:13.845Z,18.63
2019-05-21T17:32:42.432Z,17.67
2019-05-21T17:35:11.770Z,16.23
2019-05-21T17:37:40.384Z,24.67
2019-05-21T17:40:08.954Z,15.43
2019-05-21T17:42:37.620Z,13.93
2019-05-21T17:45:06.692Z,15.17
2019-05-21T17:47:35.277Z,17.97
2019-05-21T17:50:03.989Z,13.17
2019-05-21T17:52:32.567Z,18.87
2019-05-21T17:55:01.596Z,17.43
2019-05-21T17:57:31.888Z,19.77
2019-05-21T18:00:00.478Z,19.67
2019-05-21T18:02:30.481Z,16.70
2019-05-21T18:04:59.147Z,25.43
2019-05-21T18:07:28.009Z,19.87
2019-05-21T18:09:56.684Z,12.13
2019-05-21T18:12:31.970Z,17.23
2019-05-21T18:14:55.590Z,11.80
2019-05-21T18:17:25.105Z,15.63
2019-05-21T18:19:54.194Z,17.20
2019-05-21T18:22:23.417Z,15.37
2019-05-21T18:25:11.403Z,16.40
2019-05-21T18:27:39.990Z,14.43
2019-05-21T18:30:08.551Z,20.43
2019-05-21T18:32:37.406Z,14.27
2019-05-21T18:35:06.212Z,15.97
2019-05-21T18:37:35.033Z,14.83
2019-05-21T18:40:04.008Z,14.40
2019-05-21T18:42:32.580Z,13.87
2019-05-21T18:45:01.205Z,16.43
2019-05-21T18:47:29.841Z,17.67
2019-05-21T18:49:58.441Z,16.87
2019-05-21T18:52:49.510Z,17.13
2019-05-21T18:55:18.900Z,16.80
2019-05-21T18:57:47.527Z,23.57
2019-05-21T19:00:16.526Z,22.07
2019-05-21T19:02:45.126Z,27.53
2019-05-21T19:05:13.703Z,21.80
2019-05-21T19:07:42.589Z,27.20
2019-05-21T19:10:12.141Z,21.63
2019-05-21T19:12:40.727Z,21.57
2019-05-21T19:15:09.768Z,26.87
2019-05-21T19:17:57.858Z,22.47
2019-05-21T19:20:26.448Z,27.33
2019-05-21T19:22:55.056Z,28.33
2019-05-21T19:25:23.656Z,25.60
2019-05-21T19:27:52.220Z,23.63
2019-05-21T19:30:21.177Z,19.47
2019-05-21T19:32:50.154Z,26.97
2019-05-21T19:35:18.893Z,26.43
2019-05-21T19:37:47.581Z,26.83
2019-05-21T19:40:16.162Z,30.00
2019-05-21T19:42:54.328Z,26.87
2019-05-21T19:45:15.751Z,29.60
2019-05-21T19:47:44.327Z,25.83
2019-05-21T19:50:13.479Z,30.00
2019-05-21T19:52:42.080Z,25.17
2019-05-21T19:55:10.759Z,30.70
2019-05-21T19:57:40.189Z,25.00
2019-05-21T20:00:08.852Z,25.20
2019-05-21T20:02:37.457Z,25.60
2019-05-21T20:05:07.042Z,23.77
2019-05-21T20:07:36.143Z,22.87
2019-05-21T20:10:06.371Z,21.57
2019-05-21T20:12:36.277Z,25.53
2019-05-21T20:15:05.153Z,17.70
2019-05-21T20:17:33.728Z,20.70
2019-05-21T20:20:02.300Z,19.50
2019-05-21T20:22:31.718Z,20.00
2019-05-21T20:25:00.309Z,24.43
2019-05-21T20:27:28.926Z,21.23
2019-05-21T20:30:11.570Z,21.33
2019-05-21T20:32:29.182Z,21.93
2019-05-21T20:34:57.764Z,24.17
2019-05-21T20:37:47.559Z,21.70
2019-05-21T20:40:16.633Z,25.47
2019-05-21T20:42:46.485Z,24.03
2019-05-21T20:45:16.824Z,18.30
2019-05-21T20:47:45.448Z,23.27
2019-05-21T20:50:16.549Z,24.37
2019-05-21T20:52:45.490Z,19.67
2019-05-21T20:55:14.854Z,24.80
2019-05-21T20:57:43.721Z,19.63
2019-05-21T21:00:17.631Z,23.07
2019-05-21T21:02:46.335Z,19.33
2019-05-21T21:05:15.294Z,19.63
2019-05-21T21:07:43.875Z,20.40
2019-05-21T21:10:12.535Z,20.53
2019-05-21T21:12:41.211Z,25.57
2019-05-21T21:15:11.751Z,21.47
2019-05-21T21:17:40.661Z,26.67
2019-05-21T21:20:09.232Z,24.93
2019-05-21T21:22:37.826Z,20.90
2019-05-21T21:25:08.545Z,19.37
2019-05-21T21:27:56.828Z,28.57
2019-05-21T21:30:25.943Z,20.07
2019-05-21T21:32:54.966Z,20.43
2019-05-21T21:35:24.159Z,22.43
2019-05-21T21:37:52.733Z,21.70
2019-05-21T21:40:22.406Z,22.43
2019-05-21T21:42:51.433Z,25.40
2019-05-21T21:45:20.320Z,19.97
2019-05-21T21:47:49.077Z,19.73
2019-05-21T21:50:19.145Z,21.80
2019-05-21T21:52:47.936Z,20.23
2019-05-21T21:55:16.857Z,16.13
2019-05-21T21:57:45.428Z,14.43
2019-05-21T22:01:09.122Z,18.43
2019-05-21T22:03:38.066Z,19.70
2019-05-21T22:06:08.138Z,18.33
2019-05-21T22:08:36.705Z,17.87
2019-05-21T22:11:06.602Z,19.60
2019-05-21T22:13:35.548Z,19.30
2019-05-21T22:16:04.151Z,20.37
2019-05-21T22:18:32.716Z,19.57
2019-05-21T22:21:01.819Z,21.50
2019-05-21T22:23:30.903Z,19.67
2019-05-21T22:25:59.474Z,17.00
2019-05-21T22:28:28.366Z,23.17
2019-05-21T22:30:57.021Z,17.13
2019-05-21T22:33:25.591Z,16.57
2019-05-21T22:35:54.159Z,18.63
2019-05-21T22:38:23.225Z,16.17
2019-05-21T22:40:51.809Z,17.20
2019-05-21T22:43:20.476Z,18.93
2019-05-21T22:45:49.377Z,18.10
2019-05-21T22:48:17.950Z,19.40
2019-05-21T22:50:46.874Z,17.97
2019-05-21T22:53:15.449Z,21.73
2019-05-21T22:55:44.350Z,16.73
2019-05-21T22:58:12.915Z,18.00
2019-05-21T23:00:41.889Z,19.20
2019-05-21T23:03:30.180Z,16.53
2019-05-21T23:05:58.861Z,16.97
2019-05-21T23:08:27.805Z,16.07
2019-05-21T23:10:56.389Z,15.57
2019-05-21T23:13:24.972Z,17.90
2019-05-21T23:15:53.569Z,17.50
2019-05-21T23:18:22.357Z,14.97
2019-05-21T23:20:52.576Z,17.90
2019-05-21T23:23:23.976Z,16.23
2019-05-21T23:25:57.193Z,16.53
2019-05-21T23:28:26.245Z,18.63
2019-05-21T23:30:54.926Z,18.10
2019-05-21T23:33:23.628Z,17.57
2019-05-21T23:35:52.251Z,24.70
2019-05-21T23:38:40.712Z,17.27
2019-05-21T23:41:09.707Z,14.77
2019-05-21T23:43:38.280Z,20.83
2019-05-21T23:46:07.450Z,15.00
2019-05-21T23:48:36.123Z,12.87
2019-05-21T23:51:04.713Z,19.57
2019-05-21T23:53:33.435Z,15.60
2019-05-21T23:56:02.013Z,13.90
2019-05-21T23:58:30.868Z,12.77
